Terminal Aerodrome Forecast
Issued by NWS

Home | Current Version | Previous Version | Text Only | Print | Product List | Glossary On
Versions: 1 2 3 4 5 6 7 8 9 10 11 12 13 14 15 16 17 18 19 20 21 22 23 24 25 26 27 28 29 30 31 32 33 34 35 36
000
FTUS46 KEKA 202351
TAFACV
TAF
KACV 202351Z 2100/2124 31004KT P6SM SCT020 BKN250
     FM210400 10004KT 6SM BR SCT015 BKN200
     FM211000 12008G15KT P6SM OVC060
     FM211500 14014G24KT 6SM -RA OVC035
     FM212000 15010KT 5SM -RA OVC020 WS015/20045KT=

USA.gov is the U.S. government's official web portal to all federal, state and local government web resources and services.